createdAt,value
2023-03-29T00:00:38.531Z,78.84
2023-03-29T00:01:38.526Z,78.74
2023-03-29T00:02:38.577Z,78.94
2023-03-29T00:03:38.579Z,78.94
2023-03-29T00:04:38.494Z,78.84
2023-03-29T00:05:38.517Z,78.91
2023-03-29T00:06:38.470Z,78.91
2023-03-29T00:07:38.503Z,79.01
2023-03-29T00:08:38.415Z,78.80
2023-03-29T00:09:38.458Z,78.49
2023-03-29T00:10:38.398Z,78.63
2023-03-29T00:11:38.434Z,78.59
2023-03-29T00:12:38.382Z,78.59
2023-03-29T00:13:38.393Z,78.74
2023-03-29T00:14:38.396Z,78.74
2023-03-29T00:15:38.409Z,78.74
2023-03-29T00:16:38.384Z,78.84
2023-03-29T00:17:38.404Z,79.05
2023-03-29T00:18:38.312Z,79.15
2023-03-29T00:19:38.325Z,79.66
2023-03-29T00:20:38.294Z,79.66
2023-03-29T00:21:38.336Z,79.77
2023-03-29T00:22:38.292Z,79.77
2023-03-29T00:23:38.277Z,79.91
2023-03-29T00:24:38.241Z,80.11
2023-03-29T00:25:39.219Z,80.32
2023-03-29T00:26:38.229Z,80.32
2023-03-29T00:27:38.274Z,80.43
2023-03-29T00:28:38.232Z,80.43
2023-03-29T00:29:38.211Z,80.32
2023-03-29T00:30:38.203Z,80.53
2023-03-29T00:31:38.266Z,80.63
2023-03-29T00:32:38.280Z,80.63
2023-03-29T00:33:38.199Z,80.63
2023-03-29T00:34:38.136Z,80.84
2023-03-29T00:35:38.193Z,80.74
2023-03-29T00:36:38.126Z,80.84
2023-03-29T00:37:38.195Z,80.84
2023-03-29T00:38:38.098Z,80.94
2023-03-29T00:39:38.115Z,80.74
2023-03-29T00:40:38.089Z,80.94
2023-03-29T00:41:38.097Z,80.94
2023-03-29T00:42:38.097Z,81.05
2023-03-29T00:43:38.066Z,80.94
2023-03-29T00:44:38.025Z,81.15
2023-03-29T00:45:38.050Z,81.15
2023-03-29T00:46:38.061Z,81.05
2023-03-29T00:47:38.137Z,81.05
2023-03-29T00:48:37.981Z,81.15
2023-03-29T00:49:38.048Z,81.35
2023-03-29T00:50:38.010Z,81.46
2023-03-29T00:51:37.989Z,81.56
2023-03-29T00:52:37.938Z,81.56
2023-03-29T00:53:37.970Z,81.67
2023-03-29T00:54:37.952Z,81.56
2023-03-29T00:55:37.947Z,81.56
2023-03-29T00:56:37.941Z,81.46
2023-03-29T00:57:37.946Z,81.46
2023-03-29T00:58:37.891Z,81.56
2023-03-29T00:59:37.929Z,81.56
2023-03-29T01:00:44.968Z,81.56
2023-03-29T01:01:37.913Z,81.67
2023-03-29T01:02:37.912Z,81.77
2023-03-29T01:03:38.159Z,81.87
2023-03-29T01:04:37.843Z,82.08
2023-03-29T01:05:37.873Z,82.29
2023-03-29T01:06:37.824Z,82.29
2023-03-29T01:07:37.812Z,82.08
2023-03-29T01:08:37.805Z,81.98
2023-03-29T01:09:37.807Z,81.98
2023-03-29T01:10:37.764Z,82.18
2023-03-29T01:11:37.885Z,82.08
2023-03-29T01:12:37.780Z,81.98
2023-03-29T01:13:37.762Z,82.08
2023-03-29T01:14:37.715Z,82.18
2023-03-29T01:15:37.746Z,81.98
2023-03-29T01:16:37.713Z,81.87
2023-03-29T01:17:37.741Z,81.98
2023-03-29T01:18:37.678Z,81.98
2023-03-29T01:19:37.693Z,81.98
2023-03-29T01:20:37.652Z,82.08
2023-03-29T01:21:37.689Z,82.08
2023-03-29T01:22:37.659Z,82.29
2023-03-29T01:23:39.126Z,82.39
2023-03-29T01:24:37.613Z,82.70
2023-03-29T01:25:37.656Z,83.11
2023-03-29T01:26:37.583Z,83.32
2023-03-29T01:27:37.596Z,83.42
2023-03-29T01:28:37.596Z,83.53
2023-03-29T01:29:37.598Z,83.73
2023-03-29T01:30:37.556Z,83.94
2023-03-29T01:31:37.573Z,84.05
2023-03-29T01:32:37.571Z,84.15
2023-03-29T01:33:37.579Z,84.15
2023-03-29T01:34:37.519Z,84.15
2023-03-29T01:35:37.572Z,84.36
2023-03-29T01:36:37.486Z,84.97
2023-03-29T01:37:37.530Z,84.97
2023-03-29T01:38:37.467Z,85.32
2023-03-29T01:39:37.461Z,85.02
2023-03-29T01:40:37.440Z,85.08
2023-03-29T01:41:37.467Z,85.11
2023-03-29T01:42:37.450Z,85.42
2023-03-29T01:43:37.438Z,85.70
2023-03-29T01:44:37.403Z,85.84
2023-03-29T01:45:37.395Z,85.91
2023-03-29T01:46:37.473Z,85.84
2023-03-29T01:47:37.425Z,85.70
2023-03-29T01:48:37.358Z,85.80
2023-03-29T01:49:37.358Z,85.91
2023-03-29T01:50:37.319Z,86.11
2023-03-29T01:51:37.387Z,86.01
2023-03-29T01:52:37.302Z,86.01
2023-03-29T01:53:37.317Z,86.11
2023-03-29T01:54:37.290Z,86.21
2023-03-29T01:55:37.280Z,86.21
2023-03-29T01:56:37.300Z,86.01
2023-03-29T01:57:37.267Z,86.01
2023-03-29T01:58:37.297Z,86.01
2023-03-29T01:59:37.270Z,86.11
2023-03-29T02:00:37.248Z,86.11
2023-03-29T02:01:37.274Z,86.21
2023-03-29T02:02:37.256Z,86.21
2023-03-29T02:03:37.262Z,86.32
2023-03-29T02:04:37.159Z,86.32
2023-03-29T02:05:38.173Z,86.25
2023-03-29T02:06:38.143Z,86.36
2023-03-29T02:07:37.179Z,86.36
2023-03-29T02:08:37.831Z,86.36
2023-03-29T02:09:37.180Z,86.46
2023-03-29T02:10:37.105Z,86.36
2023-03-29T02:11:37.118Z,86.25
2023-03-29T02:12:37.103Z,86.46
2023-03-29T02:13:37.139Z,86.46
2023-03-29T02:14:37.048Z,86.46
2023-03-29T02:15:37.104Z,86.67
2023-03-29T02:16:37.023Z,86.77
2023-03-29T02:17:37.089Z,86.98
2023-03-29T02:18:36.998Z,87.08
2023-03-29T02:19:37.047Z,87.18
2023-03-29T02:20:36.992Z,86.88
2023-03-29T02:21:37.125Z,86.67
2023-03-29T02:22:36.983Z,86.77
2023-03-29T02:23:36.963Z,86.98
2023-03-29T02:24:36.971Z,86.98
2023-03-29T02:25:36.945Z,86.77
2023-03-29T02:26:36.912Z,86.77
2023-03-29T02:27:36.928Z,86.77
2023-03-29T02:28:36.910Z,86.77
2023-03-29T02:29:36.960Z,86.77
2023-03-29T02:30:36.895Z,86.88
2023-03-29T02:31:36.926Z,86.77
2023-03-29T02:32:36.945Z,86.77
2023-03-29T02:33:36.869Z,86.67
2023-03-29T02:34:36.852Z,86.77
2023-03-29T02:35:36.875Z,86.67
2023-03-29T02:36:36.811Z,86.67
2023-03-29T02:37:36.824Z,86.57
2023-03-29T02:38:36.829Z,86.57
2023-03-29T02:39:36.817Z,86.57
2023-03-29T02:40:36.788Z,86.77
2023-03-29T02:41:36.798Z,86.88
2023-03-29T02:42:36.752Z,86.88
2023-03-29T02:43:36.789Z,86.77
2023-03-29T02:44:36.733Z,86.77
2023-03-29T02:45:36.760Z,86.77
2023-03-29T02:46:36.726Z,86.77
2023-03-29T02:47:36.754Z,86.67
2023-03-29T02:48:36.685Z,86.77
2023-03-29T02:49:36.707Z,86.77
2023-03-29T02:50:36.678Z,86.67
2023-03-29T02:51:36.714Z,86.67
2023-03-29T02:52:36.698Z,86.57
2023-03-29T02:53:36.646Z,86.57
2023-03-29T02:54:36.601Z,86.57
2023-03-29T02:55:36.633Z,86.46
2023-03-29T02:56:37.596Z,86.36
2023-03-29T02:57:36.611Z,86.36
2023-03-29T02:58:36.582Z,86.15
2023-03-29T02:59:36.587Z,86.25
2023-03-29T03:00:36.555Z,86.25
2023-03-29T03:01:36.640Z,86.36
2023-03-29T03:02:36.592Z,86.25
2023-03-29T03:03:36.675Z,86.25
2023-03-29T03:04:36.521Z,86.25
2023-03-29T03:05:36.529Z,86.25
2023-03-29T03:06:36.505Z,86.36
2023-03-29T03:07:36.500Z,86.46
2023-03-29T03:08:36.475Z,86.36
2023-03-29T03:09:36.491Z,86.25
2023-03-29T03:10:36.451Z,86.15
2023-03-29T03:11:36.509Z,86.15
2023-03-29T03:12:36.417Z,85.94
2023-03-29T03:13:36.438Z,86.05
2023-03-29T03:14:36.430Z,86.15
2023-03-29T03:15:36.417Z,86.05
2023-03-29T03:16:36.483Z,85.94
2023-03-29T03:17:36.416Z,86.05
2023-03-29T03:18:36.362Z,86.05
2023-03-29T03:19:36.392Z,86.05
2023-03-29T03:20:36.389Z,86.05
2023-03-29T03:21:36.356Z,86.15
2023-03-29T03:22:36.306Z,86.15
2023-03-29T03:23:36.356Z,86.15
2023-03-29T03:24:36.295Z,86.25
2023-03-29T03:25:36.367Z,86.36
2023-03-29T03:26:36.280Z,86.36
2023-03-29T03:27:36.284Z,86.36
2023-03-29T03:28:36.252Z,86.36
2023-03-29T03:29:36.267Z,86.36
2023-03-29T03:30:36.244Z,86.36
2023-03-29T03:31:36.325Z,86.36
2023-03-29T03:32:36.238Z,86.36
2023-03-29T03:33:36.222Z,86.25
2023-03-29T03:34:36.220Z,86.36
2023-03-29T03:35:36.238Z,86.46
2023-03-29T03:36:36.183Z,86.40
2023-03-29T03:37:36.156Z,86.50
2023-03-29T03:38:36.202Z,86.46
2023-03-29T03:39:36.131Z,86.57
2023-03-29T03:40:36.135Z,86.57
2023-03-29T03:41:36.110Z,86.57
2023-03-29T03:42:36.136Z,86.57
2023-03-29T03:43:37.080Z,86.67
2023-03-29T03:44:36.128Z,86.67
2023-03-29T03:45:36.110Z,86.77
2023-03-29T03:46:36.094Z,86.57
2023-03-29T03:47:36.056Z,86.57
2023-03-29T03:48:36.073Z,86.57
2023-03-29T03:49:36.053Z,86.57
2023-03-29T03:50:36.050Z,86.46
2023-03-29T03:51:35.998Z,86.36
2023-03-29T03:52:36.015Z,86.15
2023-03-29T03:53:36.071Z,86.25
2023-03-29T03:54:36.019Z,86.15
2023-03-29T03:55:35.986Z,86.15
2023-03-29T03:56:36.031Z,86.15
2023-03-29T03:57:35.999Z,86.15
2023-03-29T03:58:36.009Z,86.25
2023-03-29T03:59:35.901Z,86.25
2023-03-29T04:00:35.979Z,86.25
2023-03-29T04:01:35.929Z,86.25
2023-03-29T04:02:36.009Z,86.25
2023-03-29T04:03:35.943Z,86.15
2023-03-29T04:04:35.963Z,86.15
2023-03-29T04:05:35.865Z,86.15
2023-03-29T04:06:35.882Z,86.25
2023-03-29T04:07:35.833Z,86.15
2023-03-29T04:08:35.849Z,86.36
2023-03-29T04:09:35.842Z,86.46
2023-03-29T04:10:35.827Z,86.46
2023-03-29T04:11:35.858Z,86.57
2023-03-29T04:12:35.800Z,86.67
2023-03-29T04:13:35.833Z,86.67
2023-03-29T04:14:35.804Z,86.67
2023-03-29T04:15:35.791Z,86.77
2023-03-29T04:16:36.738Z,86.77
2023-03-29T04:17:35.839Z,86.77
2023-03-29T04:18:35.821Z,86.67
2023-03-29T04:19:35.771Z,86.57
2023-03-29T04:20:35.733Z,86.67
2023-03-29T04:21:35.684Z,86.77
2023-03-29T04:22:35.701Z,86.77
2023-03-29T04:23:35.703Z,86.77
2023-03-29T04:24:35.696Z,86.77
2023-03-29T04:25:35.630Z,86.88
2023-03-29T04:26:35.714Z,86.98
2023-03-29T04:27:35.670Z,86.88
2023-03-29T04:28:35.657Z,86.88
2023-03-29T04:29:35.587Z,86.88
2023-03-29T04:30:35.630Z,86.77
2023-03-29T04:31:35.606Z,86.77
2023-03-29T04:32:35.622Z,86.77
2023-03-29T04:33:35.588Z,86.77
2023-03-29T04:34:35.584Z,86.67
2023-03-29T04:35:35.605Z,86.57
2023-03-29T04:36:35.555Z,86.36
2023-03-29T04:37:35.515Z,86.46
2023-03-29T04:38:35.515Z,86.36
2023-03-29T04:39:35.515Z,86.36
2023-03-29T04:40:35.535Z,86.46
2023-03-29T04:41:35.488Z,86.57
2023-03-29T04:42:35.476Z,86.46
2023-03-29T04:43:35.863Z,86.36
2023-03-29T04:44:35.522Z,86.36
2023-03-29T04:45:35.451Z,86.25
2023-03-29T04:46:35.540Z,86.36
2023-03-29T04:47:35.438Z,86.25
2023-03-29T04:48:36.411Z,86.36
2023-03-29T04:49:35.406Z,86.36
2023-03-29T04:50:35.400Z,86.46
2023-03-29T04:51:35.374Z,86.57
2023-03-29T04:52:35.379Z,86.67
2023-03-29T04:53:35.337Z,86.67
2023-03-29T04:54:35.379Z,86.77
2023-03-29T04:55:35.352Z,86.77
2023-03-29T04:56:35.375Z,86.77
2023-03-29T04:57:35.345Z,86.46
2023-03-29T04:58:35.314Z,86.46
2023-03-29T04:59:35.305Z,86.57
2023-03-29T05:00:35.283Z,86.57
2023-03-29T05:01:35.299Z,86.67
2023-03-29T05:02:35.348Z,86.67
2023-03-29T05:03:35.254Z,86.57
2023-03-29T05:04:35.300Z,86.57
2023-03-29T05:05:35.213Z,86.57
2023-03-29T05:06:35.243Z,86.57
2023-03-29T05:07:35.193Z,86.57
2023-03-29T05:08:35.229Z,86.57
2023-03-29T05:09:35.647Z,86.46
2023-03-29T05:10:35.184Z,86.57
2023-03-29T05:11:35.149Z,86.67
2023-03-29T05:12:35.211Z,86.57
2023-03-29T05:13:35.150Z,86.46
2023-03-29T05:14:35.452Z,86.36
2023-03-29T05:15:35.128Z,86.46
2023-03-29T05:16:35.185Z,86.67
2023-03-29T05:17:36.075Z,86.67
2023-03-29T05:18:35.093Z,86.46
2023-03-29T05:19:35.099Z,86.32
2023-03-29T05:20:35.106Z,86.21
2023-03-29T05:21:35.082Z,86.11
2023-03-29T05:22:35.096Z,86.01
2023-03-29T05:23:35.027Z,86.01
2023-03-29T05:24:35.711Z,85.91
2023-03-29T05:25:35.039Z,85.80
2023-03-29T05:26:35.025Z,85.70
2023-03-29T05:27:35.001Z,85.70
2023-03-29T05:28:35.009Z,85.70
2023-03-29T05:29:34.993Z,85.80
2023-03-29T05:30:34.998Z,85.91
2023-03-29T05:31:34.998Z,85.91
2023-03-29T05:32:34.986Z,85.91
2023-03-29T05:33:34.914Z,85.80
2023-03-29T05:34:34.927Z,85.91
2023-03-29T05:35:34.945Z,85.70
2023-03-29T05:36:34.918Z,85.49
2023-03-29T05:37:34.900Z,85.39
2023-03-29T05:38:34.886Z,85.39
2023-03-29T05:39:37.139Z,85.39
2023-03-29T05:40:34.861Z,85.39
2023-03-29T05:41:34.845Z,85.39
2023-03-29T05:42:34.863Z,85.28
2023-03-29T05:43:34.861Z,85.18
2023-03-29T05:44:34.842Z,85.18
2023-03-29T05:45:34.834Z,85.28
2023-03-29T05:46:34.817Z,85.39
2023-03-29T05:47:34.800Z,85.49
2023-03-29T05:48:34.836Z,85.60
2023-03-29T05:49:34.779Z,85.70
2023-03-29T05:50:34.771Z,85.70
2023-03-29T05:51:34.716Z,85.60
2023-03-29T05:52:34.754Z,85.60
2023-03-29T05:53:34.709Z,85.70
2023-03-29T05:54:34.692Z,85.70
2023-03-29T05:55:34.692Z,85.66
2023-03-29T05:56:34.741Z,85.55
2023-03-29T05:57:34.658Z,85.35
2023-03-29T05:58:34.671Z,85.24
2023-03-29T05:59:34.644Z,85.35
2023-03-29T06:00:34.657Z,85.14
2023-03-29T06:01:34.651Z,85.14
2023-03-29T06:02:34.700Z,85.14
2023-03-29T06:03:34.773Z,85.24
2023-03-29T06:04:35.651Z,85.21
2023-03-29T06:05:34.595Z,85.21
2023-03-29T06:06:34.586Z,85.10
2023-03-29T06:07:34.590Z,85.10
2023-03-29T06:08:34.563Z,84.89
2023-03-29T06:09:34.530Z,84.69
2023-03-29T06:10:34.546Z,84.59
2023-03-29T06:11:34.517Z,84.48
2023-03-29T06:12:34.596Z,84.44
2023-03-29T06:13:34.545Z,84.34
2023-03-29T06:14:34.541Z,84.23
2023-03-29T06:15:34.472Z,84.13
2023-03-29T06:16:34.535Z,84.03
2023-03-29T06:17:34.471Z,83.83
2023-03-29T06:18:34.537Z,83.83
2023-03-29T06:19:34.430Z,84.13
2023-03-29T06:20:34.460Z,84.13
2023-03-29T06:21:34.430Z,84.03
2023-03-29T06:22:34.886Z,83.93
2023-03-29T06:23:34.876Z,83.93
2023-03-29T06:24:34.405Z,83.83
2023-03-29T06:25:34.876Z,83.72
2023-03-29T06:26:34.393Z,83.62
2023-03-29T06:27:34.377Z,83.62
2023-03-29T06:28:34.354Z,83.72
2023-03-29T06:29:35.268Z,83.58
2023-03-29T06:30:34.356Z,83.17
2023-03-29T06:31:34.374Z,82.86
2023-03-29T06:32:34.355Z,82.65
2023-03-29T06:33:34.292Z,82.55
2023-03-29T06:34:35.550Z,82.55
2023-03-29T06:35:34.324Z,82.34
2023-03-29T06:36:34.284Z,82.34
2023-03-29T06:37:34.234Z,82.03
2023-03-29T06:38:34.268Z,81.93
2023-03-29T06:39:34.314Z,81.82
2023-03-29T06:40:34.247Z,81.41
2023-03-29T06:41:34.196Z,81.21
2023-03-29T06:42:34.221Z,80.79
2023-03-29T06:43:34.195Z,80.44
2023-03-29T06:44:34.191Z,79.97
2023-03-29T06:45:34.144Z,80.18
2023-03-29T06:46:34.277Z,80.38
2023-03-29T06:47:34.183Z,80.34
2023-03-29T06:48:34.138Z,80.34
2023-03-29T06:49:34.109Z,80.04
2023-03-29T06:50:34.141Z,79.93
2023-03-29T06:51:34.095Z,79.83
2023-03-29T06:52:34.099Z,79.93
2023-03-29T06:53:34.065Z,79.90
2023-03-29T06:54:34.095Z,79.72
2023-03-29T06:55:34.082Z,79.72
2023-03-29T06:56:34.078Z,79.48
2023-03-29T06:57:34.980Z,79.48
2023-03-29T06:58:34.374Z,79.48
2023-03-29T06:59:34.008Z,79.58
2023-03-29T07:00:34.020Z,79.17
2023-03-29T07:01:34.043Z,79.17
2023-03-29T07:02:34.124Z,79.58
2023-03-29T07:03:33.974Z,79.79
2023-03-29T07:04:33.987Z,79.79
2023-03-29T07:05:33.942Z,79.69
2023-03-29T07:06:33.971Z,79.79
2023-03-29T07:07:33.912Z,79.86
2023-03-29T07:08:33.960Z,79.75
2023-03-29T07:09:33.911Z,79.44
2023-03-29T07:10:33.921Z,79.34
2023-03-29T07:11:33.897Z,79.34
2023-03-29T07:12:34.165Z,79.24
2023-03-29T07:13:33.859Z,79.24
2023-03-29T07:14:33.883Z,79.00
2023-03-29T07:15:33.833Z,78.79
2023-03-29T07:16:33.892Z,78.38
2023-03-29T07:17:33.912Z,78.07
2023-03-29T07:18:33.852Z,77.86
2023-03-29T07:19:33.784Z,77.86
2023-03-29T07:20:33.859Z,77.97
2023-03-29T07:21:36.011Z,78.17
2023-03-29T07:22:33.791Z,78.28
2023-03-29T07:23:33.756Z,78.17
2023-03-29T07:24:33.740Z,78.38
2023-03-29T07:25:34.721Z,78.17
2023-03-29T07:26:33.762Z,77.86
2023-03-29T07:27:33.701Z,77.55
2023-03-29T07:28:33.713Z,77.55
2023-03-29T07:29:33.706Z,77.76
2023-03-29T07:30:33.688Z,78.07
2023-03-29T07:31:33.659Z,78.07
2023-03-29T07:32:33.767Z,77.97
2023-03-29T07:33:33.713Z,77.97
2023-03-29T07:34:33.645Z,77.83
2023-03-29T07:35:33.681Z,77.83
2023-03-29T07:36:33.674Z,77.93
2023-03-29T07:37:33.995Z,78.03
2023-03-29T07:38:33.612Z,77.93
2023-03-29T07:39:33.553Z,77.62
2023-03-29T07:40:33.613Z,77.42
2023-03-29T07:41:33.556Z,77.31
2023-03-29T07:42:33.577Z,77.51
2023-03-29T07:43:33.541Z,77.21
2023-03-29T07:44:33.550Z,77.00
2023-03-29T07:45:33.582Z,77.21
2023-03-29T07:46:33.516Z,77.62
2023-03-29T07:47:33.513Z,77.83
2023-03-29T07:48:33.512Z,77.83
2023-03-29T07:49:33.494Z,77.72
2023-03-29T07:50:33.485Z,77.62
2023-03-29T07:51:33.463Z,77.48
2023-03-29T07:52:33.408Z,77.38
2023-03-29T07:53:33.442Z,77.07
2023-03-29T07:54:33.403Z,77.07
2023-03-29T07:55:33.455Z,76.97
2023-03-29T07:56:33.384Z,76.76
2023-03-29T07:57:33.405Z,76.62
2023-03-29T07:58:33.397Z,76.62
2023-03-29T07:59:33.379Z,76.73
2023-03-29T08:00:33.358Z,76.93
2023-03-29T08:01:33.411Z,76.42
2023-03-29T08:02:33.371Z,76.42
2023-03-29T08:03:33.372Z,76.83
2023-03-29T08:04:33.393Z,76.93
2023-03-29T08:05:40.658Z,76.83
2023-03-29T08:06:34.320Z,76.66
2023-03-29T08:07:33.289Z,76.86
2023-03-29T08:08:33.265Z,77.17
2023-03-29T08:09:33.294Z,76.97
2023-03-29T08:10:33.241Z,77.07
2023-03-29T08:11:33.292Z,77.14
2023-03-29T08:12:33.229Z,77.38
2023-03-29T08:13:33.233Z,77.34
2023-03-29T08:14:33.184Z,77.48
2023-03-29T08:15:33.304Z,77.45
2023-03-29T08:16:33.269Z,77.24
2023-03-29T08:17:33.182Z,77.14
2023-03-29T08:18:34.832Z,77.14
2023-03-29T08:19:33.177Z,76.93
2023-03-29T08:20:33.142Z,76.93
2023-03-29T08:21:34.110Z,77.03
2023-03-29T08:22:33.138Z,76.83
2023-03-29T08:23:33.137Z,76.73
2023-03-29T08:24:33.080Z,76.62
2023-03-29T08:25:33.095Z,76.52
2023-03-29T08:26:33.068Z,76.79
2023-03-29T08:27:33.303Z,76.69
2023-03-29T08:28:33.072Z,76.48
2023-03-29T08:29:33.064Z,76.28
2023-03-29T08:30:33.015Z,76.28
2023-03-29T08:31:33.057Z,76.18
2023-03-29T08:32:33.039Z,75.87
2023-03-29T08:33:33.003Z,75.97
2023-03-29T08:34:32.981Z,76.18
2023-03-29T08:35:33.054Z,76.38
2023-03-29T08:36:32.969Z,76.28
2023-03-29T08:37:33.014Z,76.48
2023-03-29T08:38:32.935Z,76.79
2023-03-29T08:39:32.943Z,76.90
2023-03-29T08:40:32.911Z,77.10
2023-03-29T08:41:32.989Z,77.41
2023-03-29T08:42:32.917Z,77.92
2023-03-29T08:43:32.913Z,78.64
2023-03-29T08:44:32.869Z,78.85
2023-03-29T08:45:32.885Z,79.05
2023-03-29T08:46:35.381Z,79.16
2023-03-29T08:47:32.934Z,79.22
2023-03-29T08:48:32.842Z,79.43
2023-03-29T08:49:32.894Z,80.15
2023-03-29T08:50:32.822Z,80.15
2023-03-29T08:51:32.819Z,80.35
2023-03-29T08:52:32.873Z,80.46
2023-03-29T08:53:32.798Z,80.05
2023-03-29T08:54:32.786Z,79.74
2023-03-29T08:55:32.767Z,79.94
2023-03-29T08:56:34.254Z,80.66
2023-03-29T08:57:32.805Z,80.97
2023-03-29T08:58:32.751Z,81.28
2023-03-29T08:59:32.735Z,81.28
2023-03-29T09:00:32.744Z,81.18
2023-03-29T09:01:32.797Z,81.18
2023-03-29T09:02:32.745Z,81.07
2023-03-29T09:03:32.845Z,80.46
2023-03-29T09:04:32.649Z,80.56
2023-03-29T09:05:32.678Z,80.42
2023-03-29T09:06:32.640Z,80.83
2023-03-29T09:07:32.672Z,81.04
2023-03-29T09:08:32.619Z,81.14
2023-03-29T09:09:32.645Z,80.63
2023-03-29T09:10:32.588Z,80.63
2023-03-29T09:11:32.610Z,80.73
2023-03-29T09:12:33.642Z,81.14
2023-03-29T09:13:32.642Z,81.14
2023-03-29T09:14:32.585Z,80.83
2023-03-29T09:15:32.577Z,80.73
2023-03-29T09:16:32.680Z,79.91
2023-03-29T09:17:33.535Z,79.80
2023-03-29T09:18:32.500Z,79.60
2023-03-29T09:19:32.536Z,79.91
2023-03-29T09:20:32.493Z,79.80
2023-03-29T09:21:32.513Z,79.70
2023-03-29T09:22:32.504Z,79.80
2023-03-29T09:23:32.510Z,79.60
2023-03-29T09:24:32.443Z,79.80
2023-03-29T09:25:36.234Z,80.11
2023-03-29T09:26:33.443Z,80.07
2023-03-29T09:27:32.495Z,80.07
2023-03-29T09:28:32.419Z,80.28
2023-03-29T09:29:32.410Z,80.18
2023-03-29T09:30:32.376Z,80.28
2023-03-29T09:31:33.398Z,79.77
2023-03-29T09:32:32.433Z,79.15
2023-03-29T09:33:32.380Z,79.11
2023-03-29T09:34:32.334Z,79.32
2023-03-29T09:35:32.425Z,78.91
2023-03-29T09:36:32.414Z,79.11
2023-03-29T09:37:32.324Z,79.11
2023-03-29T09:38:32.296Z,78.81
2023-03-29T09:39:32.307Z,78.60
2023-03-29T09:40:32.307Z,78.81
2023-03-29T09:41:32.291Z,78.60
2023-03-29T09:42:32.278Z,78.81
2023-03-29T09:43:32.271Z,78.29
2023-03-29T09:44:32.237Z,77.78
2023-03-29T09:45:33.253Z,77.68
2023-03-29T09:46:32.319Z,77.74
2023-03-29T09:47:32.252Z,78.25
2023-03-29T09:48:32.211Z,78.25
2023-03-29T09:49:32.206Z,78.46
2023-03-29T09:50:32.459Z,78.36
2023-03-29T09:51:32.204Z,78.56
2023-03-29T09:52:32.279Z,78.36
2023-03-29T09:53:32.184Z,78.05
2023-03-29T09:54:32.114Z,78.25
2023-03-29T09:55:32.159Z,78.25
2023-03-29T09:56:32.123Z,78.36
2023-03-29T09:57:32.128Z,78.05
2023-03-29T09:58:32.109Z,78.25
2023-03-29T09:59:32.079Z,78.36
2023-03-29T10:00:32.087Z,78.05
2023-03-29T10:01:32.140Z,78.32
2023-03-29T10:02:32.090Z,78.32
2023-03-29T10:03:32.067Z,78.02
2023-03-29T10:04:32.089Z,77.91
2023-03-29T10:05:32.037Z,78.32
2023-03-29T10:06:32.025Z,77.81
2023-03-29T10:07:31.998Z,77.77
2023-03-29T10:08:32.033Z,77.77
2023-03-29T10:09:32.068Z,77.16
2023-03-29T10:10:31.988Z,76.85
2023-03-29T10:11:31.989Z,76.81
2023-03-29T10:12:32.027Z,76.61
2023-03-29T10:13:31.943Z,77.12
2023-03-29T10:14:31.913Z,76.81
2023-03-29T10:15:31.986Z,76.57
2023-03-29T10:16:31.987Z,76.06
2023-03-29T10:17:34.677Z,75.96
2023-03-29T10:18:31.869Z,75.21
2023-03-29T10:19:31.932Z,75.01
2023-03-29T10:20:31.915Z,74.60
2023-03-29T10:21:31.935Z,74.60
2023-03-29T10:22:31.822Z,74.08
2023-03-29T10:23:31.874Z,73.98
2023-03-29T10:24:31.819Z,74.19
2023-03-29T10:25:31.845Z,74.29
2023-03-29T10:26:31.811Z,74.69
2023-03-29T10:27:31.826Z,74.46
2023-03-29T10:28:31.784Z,74.76
2023-03-29T10:29:31.859Z,75.59
2023-03-29T10:30:32.458Z,74.97
2023-03-29T10:31:31.783Z,74.56
2023-03-29T10:32:31.787Z,74.46
2023-03-29T10:33:31.767Z,73.50
2023-03-29T10:34:31.719Z,73.61
2023-03-29T10:35:31.818Z,73.71
2023-03-29T10:36:32.397Z,73.40
2023-03-29T10:37:31.712Z,73.30
2023-03-29T10:38:31.728Z,73.71
2023-03-29T10:39:31.733Z,73.71
2023-03-29T10:40:31.667Z,73.20
2023-03-29T10:41:31.744Z,72.89
2023-03-29T10:42:31.612Z,73.20
2023-03-29T10:43:31.699Z,72.99
2023-03-29T10:44:33.113Z,73.10
2023-03-29T10:45:31.588Z,73.10
2023-03-29T10:46:31.630Z,72.96
2023-03-29T10:47:31.625Z,72.65
2023-03-29T10:48:31.547Z,72.96
2023-03-29T10:49:31.575Z,72.96
2023-03-29T10:50:31.531Z,72.34
2023-03-29T10:51:31.576Z,73.36
2023-03-29T10:52:31.517Z,73.27
2023-03-29T10:53:31.556Z,73.06
2023-03-29T10:54:31.491Z,72.86
2023-03-29T10:55:31.503Z,73.47
2023-03-29T10:56:31.458Z,73.06
2023-03-29T10:57:31.621Z,72.96
2023-03-29T10:58:31.487Z,72.65
2023-03-29T10:59:31.480Z,72.65
2023-03-29T11:00:31.470Z,72.41
2023-03-29T11:01:31.668Z,71.70
2023-03-29T11:02:31.661Z,71.94
2023-03-29T11:03:31.837Z,72.04
2023-03-29T11:04:31.446Z,72.24
2023-03-29T11:05:32.357Z,72.52
2023-03-29T11:06:31.429Z,72.62
2023-03-29T11:07:31.673Z,72.24
2023-03-29T11:08:31.957Z,72.55
2023-03-29T11:09:31.476Z,72.55
2023-03-29T11:10:31.347Z,72.75
2023-03-29T11:11:31.474Z,73.06
2023-03-29T11:12:31.278Z,73.54
2023-03-29T11:13:31.511Z,73.33
2023-03-29T11:14:31.283Z,73.44
2023-03-29T11:15:31.363Z,73.64
2023-03-29T11:16:31.493Z,73.13
2023-03-29T11:17:31.295Z,73.23
2023-03-29T11:18:31.214Z,73.13
2023-03-29T11:19:31.255Z,72.72
2023-03-29T11:20:31.222Z,73.13
2023-03-29T11:21:31.206Z,73.23
2023-03-29T11:22:31.175Z,73.44
2023-03-29T11:23:31.220Z,73.54
2023-03-29T11:24:31.148Z,73.64
2023-03-29T11:25:31.243Z,73.54
2023-03-29T11:26:31.182Z,73.64
2023-03-29T11:27:31.166Z,73.88
2023-03-29T11:28:31.103Z,74.18
2023-03-29T11:29:31.146Z,74.49
2023-03-29T11:30:31.142Z,74.59
2023-03-29T11:31:31.184Z,74.18
2023-03-29T11:32:31.090Z,74.39
2023-03-29T11:33:31.094Z,74.49
2023-03-29T11:34:31.015Z,74.90
2023-03-29T11:35:31.088Z,74.90
2023-03-29T11:36:31.077Z,74.49
2023-03-29T11:37:31.022Z,74.69
2023-03-29T11:38:30.987Z,74.69
2023-03-29T11:39:31.008Z,74.59
2023-03-29T11:40:30.989Z,74.59
2023-03-29T11:41:31.022Z,74.59
2023-03-29T11:42:30.964Z,74.69
2023-03-29T11:43:30.971Z,74.80
2023-03-29T11:44:30.955Z,74.90
2023-03-29T11:45:30.954Z,74.80
2023-03-29T11:46:30.962Z,75.00
2023-03-29T11:47:30.993Z,75.10
2023-03-29T11:48:30.885Z,74.90
2023-03-29T11:49:30.927Z,75.10
2023-03-29T11:50:30.873Z,75.10
2023-03-29T11:51:30.937Z,74.80
2023-03-29T11:52:30.898Z,74.87
2023-03-29T11:53:31.830Z,74.76
2023-03-29T11:54:30.829Z,74.56
2023-03-29T11:55:30.828Z,74.35
2023-03-29T11:56:30.818Z,74.25
2023-03-29T11:57:30.890Z,74.15
2023-03-29T11:58:30.798Z,74.11
2023-03-29T11:59:30.782Z,74.52
2023-03-29T12:00:30.780Z,74.63
2023-03-29T12:01:30.768Z,74.63
2023-03-29T12:02:30.802Z,74.32
2023-03-29T12:03:30.864Z,74.01
2023-03-29T12:04:30.786Z,73.81
2023-03-29T12:05:30.703Z,74.11
2023-03-29T12:06:30.722Z,74.22
2023-03-29T12:07:30.697Z,74.42
2023-03-29T12:08:30.727Z,74.01
2023-03-29T12:09:30.697Z,74.22
2023-03-29T12:10:30.733Z,74.42
2023-03-29T12:11:30.653Z,74.22
2023-03-29T12:12:30.686Z,74.32
2023-03-29T12:13:30.651Z,74.11
2023-03-29T12:14:30.632Z,73.60
2023-03-29T12:15:30.614Z,73.81
2023-03-29T12:16:30.710Z,73.91
2023-03-29T12:17:30.642Z,73.71
2023-03-29T12:18:30.587Z,73.81
2023-03-29T12:19:30.602Z,74.01
2023-03-29T12:20:30.613Z,74.11
2023-03-29T12:21:31.242Z,74.52
2023-03-29T12:22:30.545Z,74.63
2023-03-29T12:23:30.521Z,74.73
2023-03-29T12:24:30.536Z,74.63
2023-03-29T12:25:30.529Z,74.52
2023-03-29T12:26:30.519Z,74.42
2023-03-29T12:27:30.487Z,74.63
2023-03-29T12:28:30.486Z,74.52
2023-03-29T12:29:30.451Z,74.73
2023-03-29T12:30:31.543Z,74.83
2023-03-29T12:31:30.427Z,74.63
2023-03-29T12:32:30.531Z,74.52
2023-03-29T12:33:30.413Z,74.63
2023-03-29T12:34:30.439Z,74.42
2023-03-29T12:35:30.420Z,74.52
2023-03-29T12:36:30.430Z,74.83
2023-03-29T12:37:30.366Z,74.83
2023-03-29T12:38:31.039Z,74.59
2023-03-29T12:39:30.403Z,74.59
2023-03-29T12:40:30.347Z,74.38
2023-03-29T12:41:30.325Z,74.08
2023-03-29T12:42:30.338Z,73.98
2023-03-29T12:43:30.316Z,74.18
2023-03-29T12:44:30.325Z,74.25
2023-03-29T12:45:30.287Z,74.55
2023-03-29T12:46:30.346Z,74.15
2023-03-29T12:47:30.319Z,73.74
2023-03-29T12:48:31.796Z,74.05
2023-03-29T12:49:30.238Z,73.91
2023-03-29T12:50:30.248Z,73.71
2023-03-29T12:51:30.224Z,73.40
2023-03-29T12:52:30.221Z,73.60